createdAt,value
2023-08-10T00:00:00.077Z,19.91
2023-08-10T00:02:26.502Z,19.34
2023-08-10T00:04:52.893Z,19.61
2023-08-10T00:07:19.309Z,19.69
2023-08-10T00:09:45.692Z,19.18
2023-08-10T00:12:12.688Z,19.32
2023-08-10T00:14:39.078Z,19.82
2023-08-10T00:17:05.463Z,19.80
2023-08-10T00:19:31.916Z,19.75
2023-08-10T00:21:58.302Z,19.68
2023-08-10T00:24:24.775Z,19.63
2023-08-10T00:26:51.217Z,19.36
2023-08-10T00:29:17.897Z,19.75
2023-08-10T00:31:44.299Z,19.10
2023-08-10T00:34:10.708Z,19.50
2023-08-10T00:36:37.368Z,19.49
2023-08-10T00:39:04.122Z,19.54
2023-08-10T00:41:30.550Z,19.24
2023-08-10T00:43:56.972Z,19.40
2023-08-10T00:46:23.566Z,19.33
2023-08-10T00:48:50.068Z,19.49
2023-08-10T00:51:16.612Z,19.41
2023-08-10T00:53:43.044Z,19.37
2023-08-10T00:56:11.663Z,19.26
2023-08-10T00:58:38.363Z,19.35
2023-08-10T01:01:05.221Z,19.35
2023-08-10T01:03:31.951Z,19.46
2023-08-10T01:06:11.454Z,19.57
2023-08-10T01:09:12.695Z,19.62
2023-08-10T01:11:49.616Z,19.56
2023-08-10T01:14:31.985Z,19.56
2023-08-10T01:17:01.913Z,19.12
2023-08-10T01:19:36.793Z,19.20
2023-08-10T01:22:26.088Z,18.99
2023-08-10T01:25:07.290Z,18.95
2023-08-10T01:27:37.519Z,18.74
2023-08-10T01:30:05.800Z,18.85
2023-08-10T01:32:33.631Z,18.66
2023-08-10T01:35:01.625Z,18.29
2023-08-10T01:37:28.274Z,18.82
2023-08-10T01:39:54.737Z,19.16
2023-08-10T01:42:21.104Z,19.02
2023-08-10T01:44:47.517Z,19.18
2023-08-10T01:47:23.280Z,19.51
2023-08-10T01:49:54.186Z,19.31
2023-08-10T01:52:25.727Z,19.09
2023-08-10T01:54:53.059Z,19.09
2023-08-10T01:57:19.872Z,19.52
2023-08-10T01:59:46.460Z,19.66
2023-08-10T02:02:12.854Z,19.72
2023-08-10T02:04:39.274Z,19.52
2023-08-10T02:07:05.846Z,19.13
2023-08-10T02:09:33.205Z,19.44
2023-08-10T02:11:59.632Z,19.23
2023-08-10T02:14:26.738Z,18.78
2023-08-10T02:16:53.241Z,18.87
2023-08-10T02:19:19.712Z,19.07
2023-08-10T02:21:46.098Z,18.63
2023-08-10T02:24:12.489Z,18.95
2023-08-10T02:26:38.953Z,19.27
2023-08-10T02:29:05.521Z,19.38
2023-08-10T02:31:32.511Z,19.24
2023-08-10T02:33:59.049Z,19.25
2023-08-10T02:36:25.468Z,19.23
2023-08-10T02:38:51.846Z,18.64
2023-08-10T02:41:18.269Z,18.79
2023-08-10T02:43:44.729Z,19.18
2023-08-10T02:46:11.242Z,18.39
2023-08-10T02:48:37.924Z,18.88
2023-08-10T02:51:04.299Z,18.98
2023-08-10T02:53:30.806Z,18.62
2023-08-10T02:55:57.235Z,18.77
2023-08-10T02:58:23.692Z,18.71
2023-08-10T03:00:50.192Z,18.38
2023-08-10T03:03:16.649Z,18.54
2023-08-10T03:05:43.099Z,18.71
2023-08-10T03:08:09.483Z,18.61
2023-08-10T03:10:35.860Z,18.61
2023-08-10T03:13:02.278Z,18.82
2023-08-10T03:15:28.950Z,18.26
2023-08-10T03:17:55.425Z,18.27
2023-08-10T03:20:22.742Z,18.53
2023-08-10T03:22:49.171Z,18.08
2023-08-10T03:25:15.810Z,18.71
2023-08-10T03:27:42.312Z,18.50
2023-08-10T03:30:09.172Z,18.57
2023-08-10T03:32:35.675Z,18.82
2023-08-10T03:35:02.227Z,18.95
2023-08-10T03:37:28.719Z,18.63
2023-08-10T03:39:55.107Z,18.57
2023-08-10T03:42:21.536Z,18.92
2023-08-10T03:44:48.004Z,18.95
2023-08-10T03:47:14.512Z,18.67
2023-08-10T03:49:40.996Z,19.18
2023-08-10T03:52:07.603Z,19.19
2023-08-10T03:54:34.240Z,18.98
2023-08-10T03:57:00.776Z,18.67
2023-08-10T03:59:27.229Z,18.57
2023-08-10T04:01:55.218Z,18.84
2023-08-10T04:04:21.682Z,18.76
2023-08-10T04:06:49.312Z,18.79
2023-08-10T04:09:15.796Z,18.33
2023-08-10T04:11:42.310Z,18.76
2023-08-10T04:14:08.762Z,18.37
2023-08-10T04:16:35.322Z,18.34
2023-08-10T04:19:01.762Z,18.19
2023-08-10T04:21:28.251Z,18.54
2023-08-10T04:23:54.725Z,18.84
2023-08-10T04:26:21.122Z,18.68
2023-08-10T04:28:47.824Z,18.79
2023-08-10T04:31:15.161Z,18.21
2023-08-10T04:33:41.694Z,18.35
2023-08-10T04:36:08.552Z,18.42
2023-08-10T04:38:35.978Z,18.49
2023-08-10T04:41:02.400Z,18.74
2023-08-10T04:43:29.428Z,18.48
2023-08-10T04:45:55.973Z,18.55
2023-08-10T04:48:22.393Z,18.53
2023-08-10T04:50:48.819Z,18.69
2023-08-10T04:53:15.549Z,18.63
2023-08-10T04:55:42.041Z,18.66
2023-08-10T04:58:08.641Z,18.65
2023-08-10T05:00:35.112Z,18.58
2023-08-10T05:03:01.741Z,17.92
2023-08-10T05:05:28.375Z,18.23
2023-08-10T05:07:54.892Z,18.34
2023-08-10T05:10:21.337Z,18.36
2023-08-10T05:12:48.415Z,18.53
2023-08-10T05:15:15.344Z,18.67
2023-08-10T05:17:42.588Z,18.66
2023-08-10T05:20:12.932Z,19.22
2023-08-10T05:22:43.522Z,18.39
2023-08-10T05:25:11.616Z,19.25
2023-08-10T05:27:39.651Z,19.12
2023-08-10T05:30:09.823Z,18.70
2023-08-10T05:32:37.544Z,18.37
2023-08-10T05:35:06.042Z,18.72
2023-08-10T05:37:32.480Z,18.56
2023-08-10T05:39:58.956Z,18.62
2023-08-10T05:42:25.367Z,18.84
2023-08-10T05:44:51.883Z,18.90
2023-08-10T05:47:18.790Z,19.32
2023-08-10T05:49:45.221Z,18.89
2023-08-10T05:52:11.728Z,19.23
2023-08-10T05:54:38.237Z,18.71
2023-08-10T05:57:05.661Z,18.87
2023-08-10T05:59:32.527Z,19.25
2023-08-10T06:01:59.861Z,19.28
2023-08-10T06:04:26.316Z,19.07
2023-08-10T06:06:52.987Z,19.06
2023-08-10T06:09:20.579Z,19.52
2023-08-10T06:11:48.856Z,19.09
2023-08-10T06:14:16.378Z,18.69
2023-08-10T06:16:42.948Z,19.58
2023-08-10T06:19:09.631Z,19.33
2023-08-10T06:21:36.139Z,19.70
2023-08-10T06:24:03.974Z,19.51
2023-08-10T06:26:30.956Z,20.04
2023-08-10T06:28:57.359Z,19.28
2023-08-10T06:31:24.150Z,20.04
2023-08-10T06:33:51.703Z,19.85
2023-08-10T06:36:18.140Z,19.46
2023-08-10T06:38:44.503Z,19.33
2023-08-10T06:41:10.930Z,19.59
2023-08-10T06:43:38.059Z,19.56
2023-08-10T06:46:04.587Z,19.39
2023-08-10T06:48:31.019Z,19.44
2023-08-10T06:50:58.203Z,19.86
2023-08-10T06:53:24.733Z,20.11
2023-08-10T06:55:52.131Z,20.12
2023-08-10T07:00:48.885Z,20.44
2023-08-10T07:03:15.383Z,20.30
2023-08-10T07:05:43.532Z,20.04
2023-08-10T07:08:11.148Z,20.61
2023-08-10T07:10:38.205Z,20.67
2023-08-10T07:13:04.972Z,19.94
2023-08-10T07:15:33.108Z,20.86
2023-08-10T07:18:00.930Z,20.83
2023-08-10T07:20:29.715Z,20.96
2023-08-10T07:22:56.156Z,20.86
2023-08-10T07:25:23.135Z,20.95
2023-08-10T07:27:49.848Z,20.99
2023-08-10T07:30:16.591Z,20.62
2023-08-10T07:32:43.564Z,20.93
2023-08-10T07:35:10.690Z,20.86
2023-08-10T07:37:37.797Z,21.04
2023-08-10T07:40:04.488Z,21.21
2023-08-10T07:42:31.002Z,21.06
2023-08-10T07:44:57.488Z,21.01
2023-08-10T07:47:23.901Z,20.75
2023-08-10T07:49:50.544Z,20.57
2023-08-10T07:52:16.982Z,21.09
2023-08-10T07:54:43.531Z,21.48
2023-08-10T07:57:09.956Z,21.41
2023-08-10T07:59:36.396Z,21.28
2023-08-10T08:02:05.589Z,20.79
2023-08-10T08:04:32.338Z,20.85
2023-08-10T08:06:59.177Z,21.60
2023-08-10T08:09:25.912Z,21.07
2023-08-10T08:11:52.330Z,21.62
2023-08-10T08:14:18.781Z,21.19
2023-08-10T08:16:45.306Z,21.71
2023-08-10T08:19:11.799Z,21.80
2023-08-10T08:21:38.229Z,22.05
2023-08-10T08:24:04.912Z,21.91
2023-08-10T08:26:33.483Z,22.22
2023-08-10T08:29:00.075Z,22.15
2023-08-10T08:31:27.273Z,22.41
2023-08-10T08:33:54.549Z,21.67
2023-08-10T08:36:21.054Z,22.29
2023-08-10T08:38:47.592Z,22.38
2023-08-10T08:41:18.552Z,22.52
2023-08-10T08:43:45.986Z,22.64
2023-08-10T08:46:13.687Z,22.68
2023-08-10T08:48:40.496Z,22.59
2023-08-10T08:51:06.956Z,22.46
2023-08-10T08:53:34.838Z,22.46
2023-08-10T08:56:02.328Z,23.11
2023-08-10T08:58:28.707Z,23.52
2023-08-10T09:00:55.861Z,23.51
2023-08-10T09:03:29.249Z,23.66
2023-08-10T09:05:56.013Z,23.79
2023-08-10T09:08:23.037Z,23.58
2023-08-10T09:10:49.800Z,23.34
2023-08-10T09:13:22.365Z,23.91
2023-08-10T09:16:04.842Z,23.76
2023-08-10T09:18:33.892Z,24.01
2023-08-10T09:21:16.911Z,24.10
2023-08-10T09:23:46.275Z,23.88
2023-08-10T09:26:15.743Z,24.13
2023-08-10T09:28:42.204Z,24.02
2023-08-10T09:31:11.911Z,23.53
2023-08-10T09:33:40.901Z,24.01
2023-08-10T09:36:10.013Z,24.10
2023-08-10T09:38:36.680Z,24.09
2023-08-10T09:41:14.649Z,24.31
2023-08-10T09:43:42.834Z,24.46
2023-08-10T09:46:11.031Z,24.77
2023-08-10T09:48:46.100Z,24.93
2023-08-10T09:51:13.747Z,24.90
2023-08-10T09:53:40.571Z,24.86
2023-08-10T09:56:09.969Z,25.08
2023-08-10T09:58:42.544Z,24.92
2023-08-10T10:01:16.649Z,24.90
2023-08-10T10:03:45.675Z,25.15
2023-08-10T10:06:16.399Z,24.83
2023-08-10T10:08:52.992Z,25.46
2023-08-10T10:11:22.004Z,25.42
2023-08-10T10:13:48.742Z,25.82
2023-08-10T10:16:15.656Z,25.74
2023-08-10T10:18:42.272Z,25.89
2023-08-10T10:21:08.963Z,26.17
2023-08-10T10:23:41.925Z,26.27
2023-08-10T10:26:08.790Z,25.92
2023-08-10T10:28:35.798Z,26.03
2023-08-10T10:31:14.759Z,26.38
2023-08-10T10:33:55.222Z,26.19
2023-08-10T10:36:24.922Z,25.98
2023-08-10T10:39:08.383Z,25.90
2023-08-10T10:41:38.348Z,26.48
2023-08-10T10:44:06.136Z,26.61
2023-08-10T10:46:32.663Z,26.54
2023-08-10T10:49:05.792Z,26.59
2023-08-10T10:51:32.486Z,26.13
2023-08-10T10:53:59.417Z,26.52
2023-08-10T10:56:26.530Z,26.90
2023-08-10T10:58:53.079Z,27.34
2023-08-10T11:01:23.198Z,27.37
2023-08-10T11:03:54.777Z,27.78
2023-08-10T11:06:22.129Z,28.13
2023-08-10T11:08:52.911Z,27.85
2023-08-10T11:11:19.454Z,27.70
2023-08-10T11:13:45.954Z,27.36
2023-08-10T11:16:12.715Z,27.59
2023-08-10T11:18:39.244Z,27.81
2023-08-10T11:21:10.129Z,27.86
2023-08-10T11:23:37.030Z,28.58
2023-08-10T11:26:04.063Z,27.98
2023-08-10T11:28:30.682Z,27.48
2023-08-10T11:31:05.197Z,27.44
2023-08-10T11:33:31.746Z,27.70
2023-08-10T11:35:59.996Z,27.82
2023-08-10T11:38:26.693Z,28.08
2023-08-10T11:40:58.689Z,28.67
2023-08-10T11:43:26.374Z,27.68
2023-08-10T11:45:55.805Z,28.39
2023-08-10T11:48:23.369Z,28.87
2023-08-10T11:50:59.296Z,28.68
2023-08-10T11:53:33.667Z,29.23
2023-08-10T11:56:00.511Z,29.33
2023-08-10T11:58:32.881Z,30.06
2023-08-10T12:01:03.761Z,29.66
2023-08-10T12:03:35.433Z,29.28
2023-08-10T12:06:06.141Z,29.17
2023-08-10T12:08:37.543Z,28.89
2023-08-10T12:11:09.031Z,28.47
2023-08-10T12:13:47.069Z,29.31
2023-08-10T12:16:15.441Z,28.99
2023-08-10T12:18:42.311Z,28.89
2023-08-10T12:21:09.366Z,28.46
2023-08-10T12:23:35.855Z,28.39
2023-08-10T12:26:02.510Z,29.39
2023-08-10T12:28:28.920Z,29.71
2023-08-10T12:30:55.507Z,29.28
2023-08-10T12:33:22.002Z,30.12
2023-08-10T12:35:50.283Z,29.44
2023-08-10T12:38:19.523Z,29.88
2023-08-10T12:40:46.261Z,29.61
2023-08-10T12:43:12.741Z,29.97
2023-08-10T12:45:39.362Z,30.15
2023-08-10T12:48:06.181Z,30.45
2023-08-10T12:50:32.819Z,29.82
2023-08-10T12:52:59.321Z,29.88
2023-08-10T12:55:25.729Z,29.46
2023-08-10T12:57:52.212Z,29.86
2023-08-10T13:00:21.685Z,30.12
2023-08-10T13:02:52.225Z,30.52
2023-08-10T13:05:19.253Z,30.33
2023-08-10T13:07:47.110Z,30.52
2023-08-10T13:10:18.583Z,30.03
2023-08-10T13:12:45.300Z,29.72
2023-08-10T13:15:12.121Z,30.23
2023-08-10T13:17:39.142Z,30.12
2023-08-10T13:20:06.269Z,29.69
2023-08-10T13:22:37.102Z,30.04
2023-08-10T13:25:07.657Z,30.46
2023-08-10T13:27:34.468Z,30.72
2023-08-10T13:30:01.132Z,30.95
2023-08-10T13:32:27.886Z,30.31
2023-08-10T13:34:54.518Z,30.93
2023-08-10T13:37:21.170Z,31.31
2023-08-10T13:39:47.581Z,31.52
2023-08-10T13:42:14.118Z,31.51
2023-08-10T13:44:40.654Z,31.60
2023-08-10T13:47:07.105Z,31.21
2023-08-10T13:49:49.013Z,31.02
2023-08-10T13:52:20.119Z,31.13
2023-08-10T13:54:46.676Z,31.13
2023-08-10T13:57:13.175Z,31.22
2023-08-10T13:59:41.021Z,31.41
2023-08-10T14:02:09.770Z,31.62
2023-08-10T14:04:36.815Z,31.66
2023-08-10T14:07:05.272Z,31.80
2023-08-10T14:09:32.849Z,31.58
2023-08-10T14:11:59.615Z,31.39
2023-08-10T14:14:27.357Z,31.55
2023-08-10T14:16:53.850Z,31.47
2023-08-10T14:19:20.366Z,31.07
2023-08-10T14:21:46.939Z,30.33
2023-08-10T14:24:13.474Z,30.68
2023-08-10T14:26:39.920Z,30.60
2023-08-10T14:29:07.622Z,30.30
2023-08-10T14:31:34.772Z,30.95
2023-08-10T14:34:01.442Z,30.65
2023-08-10T14:36:28.087Z,30.67
2023-08-10T14:38:54.577Z,30.71
2023-08-10T14:41:21.078Z,30.38
2023-08-10T14:43:47.717Z,31.09
2023-08-10T14:46:14.508Z,31.01
2023-08-10T14:48:40.962Z,31.26
2023-08-10T14:51:07.975Z,31.57
2023-08-10T14:53:34.426Z,31.37
2023-08-10T14:56:00.921Z,31.55
2023-08-10T14:58:27.702Z,31.81
2023-08-10T15:00:54.806Z,32.06
2023-08-10T15:03:25.288Z,31.70
2023-08-10T15:05:51.912Z,31.21
2023-08-10T15:08:18.429Z,30.58
2023-08-10T15:10:45.413Z,30.69
2023-08-10T15:13:12.136Z,30.49
2023-08-10T15:15:38.631Z,31.29
2023-08-10T15:18:05.359Z,31.43
2023-08-10T15:20:32.199Z,31.40
2023-08-10T15:23:09.165Z,31.39
2023-08-10T15:25:42.334Z,31.06
2023-08-10T15:28:08.862Z,31.13
2023-08-10T15:30:35.535Z,31.12
2023-08-10T15:33:02.187Z,31.36
2023-08-10T15:35:29.389Z,32.19
2023-08-10T15:37:55.868Z,32.29
2023-08-10T15:40:22.483Z,31.99
2023-08-10T15:42:49.012Z,32.00
2023-08-10T15:45:15.481Z,31.91
2023-08-10T15:47:41.897Z,31.62
2023-08-10T15:50:13.323Z,31.29
2023-08-10T15:52:41.837Z,31.45
2023-08-10T15:55:08.789Z,31.68
2023-08-10T15:57:35.763Z,31.56
2023-08-10T16:00:05.774Z,32.00
2023-08-10T16:02:32.451Z,31.73
2023-08-10T16:04:59.001Z,31.47
2023-08-10T16:07:25.370Z,31.46
2023-08-10T16:09:52.581Z,31.48
2023-08-10T16:12:19.044Z,31.13
2023-08-10T16:14:48.832Z,31.07
2023-08-10T16:17:15.215Z,31.45
2023-08-10T16:19:41.585Z,31.80
2023-08-10T16:22:08.189Z,31.64
2023-08-10T16:24:34.840Z,31.99
2023-08-10T16:27:01.297Z,32.10
2023-08-10T16:29:27.825Z,31.73
2023-08-10T16:31:54.379Z,32.42
2023-08-10T16:34:20.833Z,32.44
2023-08-10T16:36:47.277Z,32.24
2023-08-10T16:39:13.776Z,32.39
2023-08-10T16:41:40.224Z,32.11
2023-08-10T16:44:07.094Z,32.44
2023-08-10T16:46:38.841Z,31.97
2023-08-10T16:49:07.968Z,31.89
2023-08-10T16:51:34.701Z,31.61
2023-08-10T16:54:01.112Z,31.60
2023-08-10T16:56:27.774Z,31.41
2023-08-10T16:58:54.228Z,31.25
2023-08-10T17:01:20.684Z,31.02
2023-08-10T17:03:47.195Z,30.79
2023-08-10T17:06:13.639Z,30.59
2023-08-10T17:08:40.066Z,30.63
2023-08-10T17:11:06.500Z,30.48
2023-08-10T17:13:32.888Z,30.26
2023-08-10T17:15:59.318Z,30.53
2023-08-10T17:18:25.722Z,30.43
2023-08-10T17:20:52.132Z,30.61
2023-08-10T17:23:18.645Z,30.12
2023-08-10T17:25:45.073Z,30.61
2023-08-10T17:28:12.471Z,30.28
2023-08-10T17:30:38.969Z,30.41
2023-08-10T17:33:05.796Z,30.11
2023-08-10T17:35:33.258Z,29.75
2023-08-10T17:37:59.873Z,30.13
2023-08-10T17:40:26.462Z,30.21
2023-08-10T17:42:52.904Z,30.22
2023-08-10T17:45:19.364Z,30.23
2023-08-10T17:47:45.831Z,29.43
2023-08-10T17:50:12.281Z,30.17
2023-08-10T17:52:39.386Z,30.25
2023-08-10T17:55:07.119Z,30.02
2023-08-10T17:57:36.632Z,29.55
2023-08-10T18:00:11.611Z,29.83
2023-08-10T18:02:38.753Z,29.32
2023-08-10T18:05:08.996Z,29.81
2023-08-10T18:07:36.274Z,29.51
2023-08-10T18:10:02.922Z,29.67
2023-08-10T18:12:29.373Z,29.65
2023-08-10T18:14:55.970Z,29.91
2023-08-10T18:17:23.258Z,29.65
2023-08-10T18:19:49.854Z,29.70
2023-08-10T18:22:16.560Z,29.32
2023-08-10T18:24:44.136Z,29.47
2023-08-10T18:27:10.642Z,29.31
2023-08-10T18:29:39.296Z,29.54
2023-08-10T18:32:06.684Z,29.25
2023-08-10T18:34:34.760Z,29.33
2023-08-10T18:37:02.211Z,29.32
2023-08-10T18:39:28.844Z,28.92
2023-08-10T18:41:55.463Z,28.73
2023-08-10T18:44:24.796Z,29.29
2023-08-10T18:46:51.777Z,29.12
2023-08-10T18:49:19.053Z,28.73
2023-08-10T18:51:47.248Z,28.83
2023-08-10T18:54:13.822Z,28.69
2023-08-10T18:56:40.506Z,28.68
2023-08-10T18:59:06.935Z,28.43
2023-08-10T19:01:33.545Z,28.48
2023-08-10T19:03:59.970Z,28.38
2023-08-10T19:06:26.325Z,28.34
2023-08-10T19:08:52.971Z,28.25
2023-08-10T19:11:19.621Z,28.10
2023-08-10T19:13:51.218Z,28.16
2023-08-10T19:16:17.672Z,27.89
2023-08-10T19:18:45.931Z,27.30
2023-08-10T19:21:15.816Z,27.85
2023-08-10T19:23:42.777Z,27.70
2023-08-10T19:26:09.384Z,27.40
2023-08-10T19:28:38.575Z,27.51
2023-08-10T19:31:09.358Z,27.37
2023-08-10T19:33:36.590Z,27.26
2023-08-10T19:36:04.484Z,27.29
2023-08-10T19:38:33.237Z,27.37
2023-08-10T19:40:59.665Z,27.13
2023-08-10T19:43:26.576Z,26.66
2023-08-10T19:45:53.458Z,27.13
2023-08-10T19:48:20.099Z,27.04
2023-08-10T19:50:47.100Z,26.74
2023-08-10T19:53:14.462Z,26.75
2023-08-10T19:55:40.924Z,26.64
2023-08-10T19:58:07.650Z,26.57
2023-08-10T20:00:34.564Z,26.43
2023-08-10T20:03:01.201Z,26.51
2023-08-10T20:05:27.757Z,26.56
2023-08-10T20:07:54.261Z,26.09
2023-08-10T20:10:23.474Z,26.11
2023-08-10T20:12:50.329Z,26.37
2023-08-10T20:15:16.987Z,26.10
2023-08-10T20:17:43.515Z,26.42
2023-08-10T20:20:13.200Z,25.92
2023-08-10T20:22:39.744Z,25.71
2023-08-10T20:25:09.425Z,25.95
2023-08-10T20:27:38.436Z,26.22
2023-08-10T20:30:10.255Z,26.10
2023-08-10T20:32:36.782Z,26.02
2023-08-10T20:35:03.897Z,25.61
2023-08-10T20:37:30.481Z,25.49
2023-08-10T20:39:56.903Z,25.90
2023-08-10T20:42:23.478Z,26.03
2023-08-10T20:44:49.903Z,25.45
2023-08-10T20:47:16.677Z,25.93
2023-08-10T20:49:43.484Z,25.79
2023-08-10T20:52:10.036Z,25.82
2023-08-10T20:54:36.691Z,25.52
2023-08-10T20:57:03.847Z,25.53
2023-08-10T20:59:34.892Z,25.47
2023-08-10T21:02:05.046Z,25.47
2023-08-10T21:04:31.541Z,25.50
2023-08-10T21:06:58.142Z,25.61
2023-08-10T21:09:25.217Z,25.29
2023-08-10T21:11:52.339Z,25.35
2023-08-10T21:14:18.868Z,24.88
2023-08-10T21:16:45.446Z,24.72
2023-08-10T21:19:11.912Z,25.38
2023-08-10T21:21:38.302Z,24.79
2023-08-10T21:24:06.300Z,24.40
2023-08-10T21:26:32.664Z,25.21
2023-08-10T21:28:59.280Z,24.72
2023-08-10T21:31:25.721Z,24.99
2023-08-10T21:33:52.212Z,25.05
2023-08-10T21:36:19.057Z,24.83
2023-08-10T21:38:45.464Z,24.84
2023-08-10T21:41:11.883Z,24.32
2023-08-10T21:43:38.376Z,24.91
2023-08-10T21:46:05.617Z,24.92
2023-08-10T21:48:32.094Z,24.86
2023-08-10T21:50:58.694Z,24.74
2023-08-10T21:53:25.250Z,24.56
2023-08-10T21:55:51.713Z,24.17
2023-08-10T21:58:18.132Z,24.65
2023-08-10T22:00:44.674Z,24.55
2023-08-10T22:03:11.257Z,24.32
2023-08-10T22:05:37.829Z,24.49
2023-08-10T22:08:04.430Z,23.96
2023-08-10T22:10:30.944Z,24.52
2023-08-10T22:12:57.381Z,24.21
2023-08-10T22:15:23.778Z,24.23
2023-08-10T22:17:50.187Z,24.44
2023-08-10T22:20:16.739Z,23.78
2023-08-10T22:25:15.400Z,24.18
2023-08-10T22:27:41.772Z,23.37
2023-08-10T22:30:14.620Z,24.08
2023-08-10T22:32:41.905Z,23.72
2023-08-10T22:35:11.182Z,23.26
2023-08-10T22:37:37.728Z,23.55
2023-08-10T22:40:07.059Z,23.90
2023-08-10T22:42:33.662Z,23.82
2023-08-10T22:45:00.098Z,23.84
2023-08-10T22:47:26.649Z,23.98
2023-08-10T22:49:53.096Z,23.93
2023-08-10T22:52:19.677Z,23.72
2023-08-10T22:54:46.253Z,23.74
2023-08-10T22:57:13.830Z,23.82
2023-08-10T22:59:40.608Z,23.83
2023-08-10T23:02:07.255Z,23.66
2023-08-10T23:04:34.208Z,23.62
2023-08-10T23:07:01.530Z,23.53
2023-08-10T23:09:27.970Z,23.37
2023-08-10T23:11:54.370Z,23.16
2023-08-10T23:14:20.864Z,23.06
2023-08-10T23:16:50.155Z,23.03
2023-08-10T23:19:18.024Z,22.60
2023-08-10T23:21:44.397Z,22.80
2023-08-10T23:24:10.798Z,23.03
2023-08-10T23:26:37.256Z,23.30
2023-08-10T23:29:04.537Z,23.04
2023-08-10T23:31:31.089Z,23.34
2023-08-10T23:33:57.846Z,23.04
2023-08-10T23:36:24.210Z,23.03
2023-08-10T23:38:51.987Z,23.03
2023-08-10T23:41:18.671Z,23.26
2023-08-10T23:43:46.163Z,23.22
2023-08-10T23:48:39.403Z,23.20
2023-08-10T23:51:06.552Z,22.75
2023-08-10T23:53:33.113Z,23.02
2023-08-10T23:55:59.553Z,22.79
2023-08-10T23:58:37.396Z,22.79
